Independence — WDD6659 — position and weather

sailwx.info

Track history (hours):
 
Tides and Currents Weather Stations Pressure Air Temp Water Temp Dewpoint Dewpoint Depression Visibility Wind Speed Wind Dir Waves Ship Positions

Independence

Owner: Sortwell, Inc. DBA AmNav Maritime Services, Oakland, CA. More information available from US FCC via Universal Licensing System and Coast Guard Vessel Documentation Center.

Last reported at 2017-Jan-17 13:20 UTC. Time now 2017-Jan-17 15:13 UTC.
Position N 33°45' W 118°12'.

Length 24 m; draft 4.9 m.

Type: Tug. MMSI: 367175860.

Date/timePositionNaut miles runAvg speedWind from/ knotsBaromVisibWave heightAir tempDewpointWater temp
2017-Jan-17 13:20N 33°45' W 118°12'1 1.5
2017-Jan-17 12:33N 33°44' W 118°12'2 0.6
2017-Jan-17 09:33N 33°45' W 118°13'3 0.4
2017-Jan-17 01:31N 33°45' W 118°16'0 0.4
2017-Jan-17 00:29N 33°45' W 118°16'1 0.0
2017-Jan-15 08:29N 33°44' W 118°17'0 0.0
2017-Jan-15 07:25N 33°44' W 118°17'0 0.0
2017-Jan-15 04:32N 33°44' W 118°16'1 0.9
2017-Jan-15 03:19N 33°44' W 118°15'1 0.4
2017-Jan-15 00:33N 33°44' W 118°17'0 0.0
2017-Jan-14 23:32N 33°44' W 118°17'0 0.0
2017-Jan-14 22:33N 33°44' W 118°17'0 0.0
2017-Jan-14 21:32N 33°44' W 118°17'0 0.0
2017-Jan-14 18:33N 33°44' W 118°17'  
2017-Jan-09 08:21N 33°44' W 118°16'2 1.9
2017-Jan-09 07:33N 33°45' W 118°16'2 1.5
2017-Jan-09 06:33N 33°44' W 118°17'2 2.0
2017-Jan-09 05:33N 33°43' W 118°14'2 2.4
2017-Jan-09 04:33N 33°45' W 118°12'0 0.4
2017-Jan-09 03:29N 33°44' W 118°13'1 0.0
2017-Jan-08 12:20N 33°45' W 118°12'3 0.1
2017-Jan-07 14:30N 33°43' W 118°15'  
Track history (hours):
 
Tides and Currents Weather Stations Pressure Air Temp Water Temp Dewpoint Dewpoint Depression Visibility Wind Speed Wind Dir Waves Ship Positions

Independence

Owner: Sortwell, Inc. DBA AmNav Maritime Services, Oakland, CA. More information available from US FCC via Universal Licensing System and Coast Guard Vessel Documentation Center.

Last reported at 2017-Jan-17 13:20 UTC. Time now 2017-Jan-17 15:13 UTC.
Position N 33°45' W 118°12'.

Length 24 m; draft 4.9 m.

Type: Tug. MMSI: 367175860.

Date/timePositionNaut miles runAvg speedWind from/ knotsBaromVisibWave heightAir tempDewpointWater temp
2017-Jan-17 13:20N 33°45' W 118°12'1 1.5
2017-Jan-17 12:33N 33°44' W 118°12'2 0.6
2017-Jan-17 09:33N 33°45' W 118°13'3 0.4
2017-Jan-17 01:31N 33°45' W 118°16'0 0.4
2017-Jan-17 00:29N 33°45' W 118°16'1 0.0
2017-Jan-15 08:29N 33°44' W 118°17'0 0.0
2017-Jan-15 07:25N 33°44' W 118°17'0 0.0
2017-Jan-15 04:32N 33°44' W 118°16'1 0.9
2017-Jan-15 03:19N 33°44' W 118°15'1 0.4
2017-Jan-15 00:33N 33°44' W 118°17'0 0.0
2017-Jan-14 23:32N 33°44' W 118°17'0 0.0
2017-Jan-14 22:33N 33°44' W 118°17'0 0.0
2017-Jan-14 21:32N 33°44' W 118°17'0 0.0
2017-Jan-14 18:33N 33°44' W 118°17'  
2017-Jan-09 08:21N 33°44' W 118°16'2 1.9
2017-Jan-09 07:33N 33°45' W 118°16'2 1.5
2017-Jan-09 06:33N 33°44' W 118°17'2 2.0
2017-Jan-09 05:33N 33°43' W 118°14'2 2.4
2017-Jan-09 04:33N 33°45' W 118°12'0 0.4
2017-Jan-09 03:29N 33°44' W 118°13'1 0.0
2017-Jan-08 12:20N 33°45' W 118°12'3 0.1
2017-Jan-07 14:30N 33°43' W 118°15'  

Dump ship's entire track history